sensor_id;sensor_type;location;lat;lon;timestamp;P1;durP1;ratioP1;P2;durP2;ratioP2
1206;SDS011;593;53.184;8.216;2023-12-20T00:02:05;2.60;;;1.03;;
1206;SDS011;593;53.184;8.216;2023-12-20T00:04:30;3.67;;;1.13;;
1206;SDS011;593;53.184;8.216;2023-12-20T00:06:56;2.20;;;0.70;;
1206;SDS011;593;53.184;8.216;2023-12-20T00:09:21;3.83;;;1.17;;
1206;SDS011;593;53.184;8.216;2023-12-20T00:11:46;4.10;;;2.00;;
1206;SDS011;593;53.184;8.216;2023-12-20T00:14:12;3.43;;;0.90;;
1206;SDS011;593;53.184;8.216;2023-12-20T00:16:37;4.00;;;0.93;;
1206;SDS011;593;53.184;8.216;2023-12-20T00:19:02;4.70;;;0.90;;
1206;SDS011;593;53.184;8.216;2023-12-20T00:21:28;1.43;;;0.60;;
1206;SDS011;593;53.184;8.216;2023-12-20T00:23:53;3.10;;;0.90;;
1206;SDS011;593;53.184;8.216;2023-12-20T00:26:18;4.87;;;1.27;;
1206;SDS011;593;53.184;8.216;2023-12-20T00:28:44;4.13;;;0.80;;
1206;SDS011;593;53.184;8.216;2023-12-20T00:31:09;4.83;;;1.07;;
1206;SDS011;593;53.184;8.216;2023-12-20T00:33:34;3.80;;;0.80;;
1206;SDS011;593;53.184;8.216;2023-12-20T00:36:00;3.30;;;0.70;;
1206;SDS011;593;53.184;8.216;2023-12-20T00:38:25;2.03;;;1.83;;
1206;SDS011;593;53.184;8.216;2023-12-20T00:40:50;4.73;;;1.37;;
1206;SDS011;593;53.184;8.216;2023-12-20T00:43:16;2.63;;;1.30;;
1206;SDS011;593;53.184;8.216;2023-12-20T00:45:41;2.90;;;0.77;;
1206;SDS011;593;53.184;8.216;2023-12-20T00:48:07;5.10;;;0.60;;
1206;SDS011;593;53.184;8.216;2023-12-20T00:50:32;4.07;;;0.77;;
1206;SDS011;593;53.184;8.216;2023-12-20T00:52:57;4.63;;;0.83;;
1206;SDS011;593;53.184;8.216;2023-12-20T00:55:23;3.23;;;0.80;;
1206;SDS011;593;53.184;8.216;2023-12-20T00:57:48;5.80;;;0.97;;
1206;SDS011;593;53.184;8.216;2023-12-20T01:00:13;2.17;;;0.90;;
1206;SDS011;593;53.184;8.216;2023-12-20T01:02:39;7.30;;;0.80;;
1206;SDS011;593;53.184;8.216;2023-12-20T01:05:05;1.20;;;0.95;;
1206;SDS011;593;53.184;8.216;2023-12-20T01:07:32;3.42;;;0.70;;
1206;SDS011;593;53.184;8.216;2023-12-20T01:09:57;1.37;;;0.70;;
1206;SDS011;593;53.184;8.216;2023-12-20T01:12:23;2.83;;;1.43;;
1206;SDS011;593;53.184;8.216;2023-12-20T01:14:48;1.83;;;1.23;;
1206;SDS011;593;53.184;8.216;2023-12-20T01:17:13;3.90;;;1.33;;
1206;SDS011;593;53.184;8.216;2023-12-20T01:19:39;4.13;;;0.63;;
1206;SDS011;593;53.184;8.216;2023-12-20T01:22:04;3.17;;;0.83;;
1206;SDS011;593;53.184;8.216;2023-12-20T01:24:30;8.43;;;0.90;;
1206;SDS011;593;53.184;8.216;2023-12-20T01:26:55;4.97;;;0.80;;
1206;SDS011;593;53.184;8.216;2023-12-20T01:29:20;2.40;;;0.67;;
1206;SDS011;593;53.184;8.216;2023-12-20T01:31:46;0.70;;;0.50;;
1206;SDS011;593;53.184;8.216;2023-12-20T01:34:11;9.00;;;1.40;;
1206;SDS011;593;53.184;8.216;2023-12-20T01:36:37;2.37;;;0.70;;
1206;SDS011;593;53.184;8.216;2023-12-20T01:39:02;4.23;;;0.73;;
1206;SDS011;593;53.184;8.216;2023-12-20T01:41:28;2.10;;;0.70;;
1206;SDS011;593;53.184;8.216;2023-12-20T01:43:53;1.90;;;0.60;;
1206;SDS011;593;53.184;8.216;2023-12-20T01:46:18;4.90;;;0.87;;
1206;SDS011;593;53.184;8.216;2023-12-20T01:48:46;5.97;;;0.95;;
1206;SDS011;593;53.184;8.216;2023-12-20T01:51:12;3.05;;;0.80;;
1206;SDS011;593;53.184;8.216;2023-12-20T01:53:38;3.50;;;0.90;;
1206;SDS011;593;53.184;8.216;2023-12-20T01:56:05;1.17;;;0.70;;
1206;SDS011;593;53.184;8.216;2023-12-20T01:58:31;2.93;;;0.60;;
1206;SDS011;593;53.184;8.216;2023-12-20T02:00:56;2.10;;;0.80;;
1206;SDS011;593;53.184;8.216;2023-12-20T02:03:22;4.00;;;1.00;;
1206;SDS011;593;53.184;8.216;2023-12-20T02:05:47;3.57;;;0.63;;
1206;SDS011;593;53.184;8.216;2023-12-20T02:08:13;4.87;;;0.90;;
1206;SDS011;593;53.184;8.216;2023-12-20T02:10:38;2.57;;;0.73;;
1206;SDS011;593;53.184;8.216;2023-12-20T02:13:05;2.50;;;0.60;;
1206;SDS011;593;53.184;8.216;2023-12-20T02:15:31;3.73;;;1.00;;
1206;SDS011;593;53.184;8.216;2023-12-20T02:17:56;2.53;;;0.90;;
1206;SDS011;593;53.184;8.216;2023-12-20T02:20:22;4.37;;;0.83;;
1206;SDS011;593;53.184;8.216;2023-12-20T02:22:47;1.67;;;0.63;;
1206;SDS011;593;53.184;8.216;2023-12-20T02:25:13;5.03;;;0.90;;
1206;SDS011;593;53.184;8.216;2023-12-20T02:27:38;7.33;;;0.97;;
1206;SDS011;593;53.184;8.216;2023-12-20T02:30:05;5.40;;;0.98;;
1206;SDS011;593;53.184;8.216;2023-12-20T02:32:31;4.13;;;1.08;;
1206;SDS011;593;53.184;8.216;2023-12-20T02:34:57;3.40;;;1.00;;
1206;SDS011;593;53.184;8.216;2023-12-20T02:37:22;2.78;;;0.70;;
1206;SDS011;593;53.184;8.216;2023-12-20T02:39:48;6.00;;;1.03;;
1206;SDS011;593;53.184;8.216;2023-12-20T02:42:13;3.03;;;1.13;;
1206;SDS011;593;53.184;8.216;2023-12-20T02:44:38;11.80;;;0.93;;
1206;SDS011;593;53.184;8.216;2023-12-20T02:47:03;4.37;;;1.07;;
1206;SDS011;593;53.184;8.216;2023-12-20T02:49:29;6.37;;;1.27;;
1206;SDS011;593;53.184;8.216;2023-12-20T02:51:54;4.67;;;1.30;;
1206;SDS011;593;53.184;8.216;2023-12-20T02:54:20;4.83;;;0.60;;
1206;SDS011;593;53.184;8.216;2023-12-20T02:56:45;2.80;;;0.77;;
1206;SDS011;593;53.184;8.216;2023-12-20T02:59:10;4.97;;;0.83;;
1206;SDS011;593;53.184;8.216;2023-12-20T03:01:39;3.70;;;0.80;;
1206;SDS011;593;53.184;8.216;2023-12-20T03:04:07;3.72;;;1.20;;
1206;SDS011;593;53.184;8.216;2023-12-20T03:06:33;3.70;;;1.03;;
1206;SDS011;593;53.184;8.216;2023-12-20T03:08:58;6.00;;;1.10;;
1206;SDS011;593;53.184;8.216;2023-12-20T03:11:26;5.43;;;1.50;;
1206;SDS011;593;53.184;8.216;2023-12-20T03:13:52;3.10;;;0.80;;
1206;SDS011;593;53.184;8.216;2023-12-20T03:16:17;9.63;;;1.53;;
1206;SDS011;593;53.184;8.216;2023-12-20T03:18:43;6.20;;;0.80;;
1206;SDS011;593;53.184;8.216;2023-12-20T03:21:08;3.90;;;1.40;;
1206;SDS011;593;53.184;8.216;2023-12-20T03:23:34;6.40;;;1.37;;
1206;SDS011;593;53.184;8.216;2023-12-20T03:25:59;6.90;;;1.20;;
1206;SDS011;593;53.184;8.216;2023-12-20T03:28:26;7.70;;;1.10;;
1206;SDS011;593;53.184;8.216;2023-12-20T03:30:51;4.88;;;1.00;;
1206;SDS011;593;53.184;8.216;2023-12-20T03:33:17;5.67;;;0.80;;
1206;SDS011;593;53.184;8.216;2023-12-20T03:35:42;6.50;;;1.10;;
1206;SDS011;593;53.184;8.216;2023-12-20T03:38:08;10.50;;;1.20;;
1206;SDS011;593;53.184;8.216;2023-12-20T03:40:39;3.80;;;1.20;;
1206;SDS011;593;53.184;8.216;2023-12-20T03:43:05;2.38;;;0.90;;
1206;SDS011;593;53.184;8.216;2023-12-20T03:45:30;6.37;;;0.80;;
1206;SDS011;593;53.184;8.216;2023-12-20T03:47:56;4.03;;;1.00;;
1206;SDS011;593;53.184;8.216;2023-12-20T03:50:22;3.57;;;1.07;;
1206;SDS011;593;53.184;8.216;2023-12-20T03:52:47;3.10;;;0.90;;
1206;SDS011;593;53.184;8.216;2023-12-20T03:55:13;7.00;;;0.80;;
1206;SDS011;593;53.184;8.216;2023-12-20T03:57:38;8.83;;;1.27;;
1206;SDS011;593;53.184;8.216;2023-12-20T04:00:04;4.00;;;0.90;;
1206;SDS011;593;53.184;8.216;2023-12-20T04:02:34;4.43;;;0.80;;
1206;SDS011;593;53.184;8.216;2023-12-20T04:04:59;2.83;;;0.90;;
1206;SDS011;593;53.184;8.216;2023-12-20T04:07:24;4.10;;;0.80;;
1206;SDS011;593;53.184;8.216;2023-12-20T04:09:50;7.90;;;1.53;;
1206;SDS011;593;53.184;8.216;2023-12-20T04:12:15;2.10;;;0.83;;
1206;SDS011;593;53.184;8.216;2023-12-20T04:14:40;2.40;;;0.87;;
1206;SDS011;593;53.184;8.216;2023-12-20T04:17:06;3.67;;;0.97;;
1206;SDS011;593;53.184;8.216;2023-12-20T04:19:31;2.10;;;1.10;;
1206;SDS011;593;53.184;8.216;2023-12-20T04:21:57;7.27;;;1.20;;
1206;SDS011;593;53.184;8.216;2023-12-20T04:24:22;3.80;;;0.83;;
1206;SDS011;593;53.184;8.216;2023-12-20T04:26:47;5.90;;;0.80;;
1206;SDS011;593;53.184;8.216;2023-12-20T04:29:13;4.83;;;1.30;;
1206;SDS011;593;53.184;8.216;2023-12-20T04:31:38;7.13;;;1.53;;
1206;SDS011;593;53.184;8.216;2023-12-20T04:34:03;7.00;;;1.27;;
1206;SDS011;593;53.184;8.216;2023-12-20T04:36:29;2.37;;;1.30;;
1206;SDS011;593;53.184;8.216;2023-12-20T04:38:55;4.47;;;0.93;;
1206;SDS011;593;53.184;8.216;2023-12-20T04:41:20;5.80;;;1.47;;
1206;SDS011;593;53.184;8.216;2023-12-20T04:43:46;3.70;;;0.83;;
1206;SDS011;593;53.184;8.216;2023-12-20T04:46:11;1.77;;;0.70;;
1206;SDS011;593;53.184;8.216;2023-12-20T04:48:36;6.93;;;0.90;;
1206;SDS011;593;53.184;8.216;2023-12-20T04:51:01;5.30;;;1.00;;
1206;SDS011;593;53.184;8.216;2023-12-20T04:53:27;10.40;;;1.10;;
1206;SDS011;593;53.184;8.216;2023-12-20T04:55:53;5.60;;;1.17;;
1206;SDS011;593;53.184;8.216;2023-12-20T04:58:18;2.33;;;1.20;;
1206;SDS011;593;53.184;8.216;2023-12-20T05:00:43;4.87;;;1.00;;
1206;SDS011;593;53.184;8.216;2023-12-20T05:03:09;4.27;;;1.13;;
1206;SDS011;593;53.184;8.216;2023-12-20T05:05:34;4.10;;;1.33;;
1206;SDS011;593;53.184;8.216;2023-12-20T05:08:01;11.93;;;2.25;;
1206;SDS011;593;53.184;8.216;2023-12-20T05:10:26;6.00;;;1.80;;
1206;SDS011;593;53.184;8.216;2023-12-20T05:12:52;6.70;;;1.60;;
1206;SDS011;593;53.184;8.216;2023-12-20T05:15:17;4.10;;;0.90;;
1206;SDS011;593;53.184;8.216;2023-12-20T05:17:42;14.20;;;1.83;;
1206;SDS011;593;53.184;8.216;2023-12-20T05:20:08;3.80;;;0.80;;
1206;SDS011;593;53.184;8.216;2023-12-20T05:22:33;9.20;;;0.90;;
1206;SDS011;593;53.184;8.216;2023-12-20T05:24:59;4.40;;;1.60;;
1206;SDS011;593;53.184;8.216;2023-12-20T05:27:24;4.30;;;1.00;;
1206;SDS011;593;53.184;8.216;2023-12-20T05:29:49;10.50;;;1.90;;
1206;SDS011;593;53.184;8.216;2023-12-20T05:32:15;9.63;;;2.17;;
1206;SDS011;593;53.184;8.216;2023-12-20T05:34:40;3.63;;;1.90;;
1206;SDS011;593;53.184;8.216;2023-12-20T05:37:06;9.03;;;1.40;;
1206;SDS011;593;53.184;8.216;2023-12-20T05:39:31;11.47;;;1.20;;
1206;SDS011;593;53.184;8.216;2023-12-20T05:41:56;6.00;;;1.70;;
1206;SDS011;593;53.184;8.216;2023-12-20T05:44:22;6.90;;;1.27;;
1206;SDS011;593;53.184;8.216;2023-12-20T05:46:47;5.60;;;1.50;;
1206;SDS011;593;53.184;8.216;2023-12-20T05:49:13;9.43;;;1.47;;
1206;SDS011;593;53.184;8.216;2023-12-20T05:51:38;4.33;;;1.30;;
1206;SDS011;593;53.184;8.216;2023-12-20T05:54:04;7.50;;;2.00;;
1206;SDS011;593;53.184;8.216;2023-12-20T05:56:29;6.87;;;1.80;;
1206;SDS011;593;53.184;8.216;2023-12-20T05:58:54;6.20;;;1.50;;
1206;SDS011;593;53.184;8.216;2023-12-20T06:01:20;7.63;;;2.20;;
1206;SDS011;593;53.184;8.216;2023-12-20T06:03:45;7.83;;;2.07;;
1206;SDS011;593;53.184;8.216;2023-12-20T06:06:11;10.03;;;1.53;;
1206;SDS011;593;53.184;8.216;2023-12-20T06:08:37;6.03;;;1.75;;
1206;SDS011;593;53.184;8.216;2023-12-20T06:11:03;9.50;;;1.63;;
1206;SDS011;593;53.184;8.216;2023-12-20T06:13:28;9.67;;;1.70;;
1206;SDS011;593;53.184;8.216;2023-12-20T06:15:54;8.20;;;1.60;;
1206;SDS011;593;53.184;8.216;2023-12-20T06:18:20;13.98;;;2.22;;
1206;SDS011;593;53.184;8.216;2023-12-20T06:20:46;6.47;;;1.33;;
1206;SDS011;593;53.184;8.216;2023-12-20T06:23:11;12.00;;;2.67;;
1206;SDS011;593;53.184;8.216;2023-12-20T06:25:36;5.43;;;1.90;;
1206;SDS011;593;53.184;8.216;2023-12-20T06:28:02;5.00;;;2.13;;
1206;SDS011;593;53.184;8.216;2023-12-20T06:30:27;5.23;;;2.47;;
1206;SDS011;593;53.184;8.216;2023-12-20T06:32:53;11.63;;;1.70;;
1206;SDS011;593;53.184;8.216;2023-12-20T06:35:19;10.90;;;2.35;;
1206;SDS011;593;53.184;8.216;2023-12-20T06:37:45;11.33;;;2.10;;
1206;SDS011;593;53.184;8.216;2023-12-20T06:40:10;10.73;;;1.90;;
1206;SDS011;593;53.184;8.216;2023-12-20T06:42:36;3.77;;;1.57;;
1206;SDS011;593;53.184;8.216;2023-12-20T06:45:02;11.33;;;1.50;;
1206;SDS011;593;53.184;8.216;2023-12-20T06:47:27;9.23;;;1.70;;
1206;SDS011;593;53.184;8.216;2023-12-20T06:49:52;8.27;;;1.47;;
1206;SDS011;593;53.184;8.216;2023-12-20T06:52:18;5.60;;;1.70;;
1206;SDS011;593;53.184;8.216;2023-12-20T06:54:43;8.97;;;2.00;;
1206;SDS011;593;53.184;8.216;2023-12-20T06:57:09;3.93;;;1.33;;
1206;SDS011;593;53.184;8.216;2023-12-20T06:59:38;4.20;;;1.47;;
1206;SDS011;593;53.184;8.216;2023-12-20T07:02:04;8.75;;;1.92;;
1206;SDS011;593;53.184;8.216;2023-12-20T07:04:30;6.50;;;1.63;;
1206;SDS011;593;53.184;8.216;2023-12-20T07:06:55;10.17;;;1.90;;
1206;SDS011;593;53.184;8.216;2023-12-20T07:09:22;10.55;;;3.00;;
1206;SDS011;593;53.184;8.216;2023-12-20T07:11:48;11.63;;;2.27;;
1206;SDS011;593;53.184;8.216;2023-12-20T07:14:13;7.53;;;1.90;;
1206;SDS011;593;53.184;8.216;2023-12-20T07:16:39;6.93;;;1.90;;
1206;SDS011;593;53.184;8.216;2023-12-20T07:19:05;8.68;;;2.63;;
1206;SDS011;593;53.184;8.216;2023-12-20T07:21:31;11.40;;;2.37;;
1206;SDS011;593;53.184;8.216;2023-12-20T07:23:56;7.10;;;1.60;;
1206;SDS011;593;53.184;8.216;2023-12-20T07:26:22;6.27;;;2.33;;
1206;SDS011;593;53.184;8.216;2023-12-20T07:28:48;9.02;;;1.83;;
1206;SDS011;593;53.184;8.216;2023-12-20T07:31:15;6.43;;;1.20;;
1206;SDS011;593;53.184;8.216;2023-12-20T07:33:40;6.63;;;1.90;;
1206;SDS011;593;53.184;8.216;2023-12-20T07:36:06;8.50;;;1.73;;
1206;SDS011;593;53.184;8.216;2023-12-20T07:38:31;9.00;;;2.03;;
1206;SDS011;593;53.184;8.216;2023-12-20T07:40:57;6.77;;;1.97;;
1206;SDS011;593;53.184;8.216;2023-12-20T07:43:22;12.77;;;4.67;;
1206;SDS011;593;53.184;8.216;2023-12-20T07:45:47;10.47;;;2.33;;
1206;SDS011;593;53.184;8.216;2023-12-20T07:48:13;5.93;;;2.00;;
1206;SDS011;593;53.184;8.216;2023-12-20T07:50:39;9.93;;;2.07;;
1206;SDS011;593;53.184;8.216;2023-12-20T07:53:04;8.80;;;1.63;;
1206;SDS011;593;53.184;8.216;2023-12-20T07:55:29;7.33;;;2.37;;
1206;SDS011;593;53.184;8.216;2023-12-20T07:57:56;10.20;;;2.20;;
1206;SDS011;593;53.184;8.216;2023-12-20T08:00:21;8.60;;;2.30;;
1206;SDS011;593;53.184;8.216;2023-12-20T08:02:46;6.40;;;2.00;;
1206;SDS011;593;53.184;8.216;2023-12-20T08:05:12;12.43;;;1.93;;
1206;SDS011;593;53.184;8.216;2023-12-20T08:07:38;13.07;;;2.70;;
1206;SDS011;593;53.184;8.216;2023-12-20T08:10:04;9.33;;;1.83;;
1206;SDS011;593;53.184;8.216;2023-12-20T08:12:29;5.10;;;1.80;;
1206;SDS011;593;53.184;8.216;2023-12-20T08:14:55;11.63;;;1.80;;
1206;SDS011;593;53.184;8.216;2023-12-20T08:17:22;5.43;;;2.10;;
1206;SDS011;593;53.184;8.216;2023-12-20T08:19:48;6.53;;;1.85;;
1206;SDS011;593;53.184;8.216;2023-12-20T08:22:13;6.50;;;2.13;;
1206;SDS011;593;53.184;8.216;2023-12-20T08:24:39;8.87;;;2.13;;
1206;SDS011;593;53.184;8.216;2023-12-20T08:27:04;10.90;;;2.57;;
1206;SDS011;593;53.184;8.216;2023-12-20T08:29:30;6.63;;;2.30;;
1206;SDS011;593;53.184;8.216;2023-12-20T08:31:55;7.93;;;2.03;;
1206;SDS011;593;53.184;8.216;2023-12-20T08:34:21;10.10;;;2.20;;
1206;SDS011;593;53.184;8.216;2023-12-20T08:36:50;13.90;;;2.03;;
1206;SDS011;593;53.184;8.216;2023-12-20T08:39:16;9.95;;;2.90;;
1206;SDS011;593;53.184;8.216;2023-12-20T08:41:41;12.50;;;2.17;;
1206;SDS011;593;53.184;8.216;2023-12-20T08:44:07;14.97;;;3.30;;
1206;SDS011;593;53.184;8.216;2023-12-20T08:46:32;4.87;;;1.80;;
1206;SDS011;593;53.184;8.216;2023-12-20T08:48:58;11.33;;;1.70;;
1206;SDS011;593;53.184;8.216;2023-12-20T08:51:23;8.13;;;2.20;;
1206;SDS011;593;53.184;8.216;2023-12-20T08:53:50;8.50;;;2.20;;
1206;SDS011;593;53.184;8.216;2023-12-20T08:56:16;7.20;;;2.47;;
1206;SDS011;593;53.184;8.216;2023-12-20T08:58:43;10.65;;;1.65;;
1206;SDS011;593;53.184;8.216;2023-12-20T09:01:08;11.03;;;2.87;;
1206;SDS011;593;53.184;8.216;2023-12-20T09:03:34;7.03;;;4.20;;
1206;SDS011;593;53.184;8.216;2023-12-20T09:05:59;7.57;;;2.17;;
1206;SDS011;593;53.184;8.216;2023-12-20T09:08:25;9.83;;;1.70;;
1206;SDS011;593;53.184;8.216;2023-12-20T09:10:50;5.57;;;1.57;;
1206;SDS011;593;53.184;8.216;2023-12-20T09:13:16;17.60;;;2.57;;
1206;SDS011;593;53.184;8.216;2023-12-20T09:15:41;13.23;;;3.17;;
1206;SDS011;593;53.184;8.216;2023-12-20T09:18:07;14.43;;;2.30;;
1206;SDS011;593;53.184;8.216;2023-12-20T09:20:32;8.90;;;2.53;;
1206;SDS011;593;53.184;8.216;2023-12-20T09:22:58;3.15;;;0.75;;
1206;SDS011;593;53.184;8.216;2023-12-20T09:25:23;2.97;;;0.73;;
1206;SDS011;593;53.184;8.216;2023-12-20T09:27:50;3.00;;;0.60;;
1206;SDS011;593;53.184;8.216;2023-12-20T09:30:17;1.98;;;0.60;;
1206;SDS011;593;53.184;8.216;2023-12-20T09:32:42;1.60;;;0.67;;
1206;SDS011;593;53.184;8.216;2023-12-20T09:35:08;2.07;;;0.50;;
1206;SDS011;593;53.184;8.216;2023-12-20T09:37:33;1.90;;;0.80;;
1206;SDS011;593;53.184;8.216;2023-12-20T09:39:59;1.40;;;0.50;;
1206;SDS011;593;53.184;8.216;2023-12-20T09:42:29;4.80;;;0.63;;
1206;SDS011;593;53.184;8.216;2023-12-20T09:45:01;0.88;;;0.82;;
1206;SDS011;593;53.184;8.216;2023-12-20T09:47:28;1.00;;;0.90;;
1206;SDS011;593;53.184;8.216;2023-12-20T09:49:54;2.30;;;0.83;;
1206;SDS011;593;53.184;8.216;2023-12-20T09:52:19;2.70;;;0.50;;
1206;SDS011;593;53.184;8.216;2023-12-20T09:54:47;2.40;;;0.60;;
1206;SDS011;593;53.184;8.216;2023-12-20T09:57:17;1.88;;;0.43;;
1206;SDS011;593;53.184;8.216;2023-12-20T09:59:43;3.20;;;0.50;;
1206;SDS011;593;53.184;8.216;2023-12-20T10:02:09;0.80;;;0.53;;
1206;SDS011;593;53.184;8.216;2023-12-20T10:04:39;4.82;;;0.63;;
1206;SDS011;593;53.184;8.216;2023-12-20T10:07:11;3.50;;;0.80;;
1206;SDS011;593;53.184;8.216;2023-12-20T10:09:37;0.75;;;0.50;;
1206;SDS011;593;53.184;8.216;2023-12-20T10:12:03;2.83;;;0.60;;
1206;SDS011;593;53.184;8.216;2023-12-20T10:14:30;3.00;;;0.90;;
1206;SDS011;593;53.184;8.216;2023-12-20T10:17:01;1.00;;;0.50;;
1206;SDS011;593;53.184;8.216;2023-12-20T10:19:30;2.47;;;0.55;;
1206;SDS011;593;53.184;8.216;2023-12-20T10:21:57;2.58;;;0.85;;
1206;SDS011;593;53.184;8.216;2023-12-20T10:24:29;0.95;;;0.50;;
1206;SDS011;593;53.184;8.216;2023-12-20T10:27:04;3.33;;;0.67;;
1206;SDS011;593;53.184;8.216;2023-12-20T10:29:36;1.65;;;0.50;;
1206;SDS011;593;53.184;8.216;2023-12-20T10:34:51;1.38;;;0.50;;
1206;SDS011;593;53.184;8.216;2023-12-20T10:37:17;3.67;;;0.88;;
1206;SDS011;593;53.184;8.216;2023-12-20T10:39:43;2.27;;;1.20;;
1206;SDS011;593;53.184;8.216;2023-12-20T10:42:09;3.03;;;0.50;;
1206;SDS011;593;53.184;8.216;2023-12-20T10:44:37;3.90;;;0.60;;
1206;SDS011;593;53.184;8.216;2023-12-20T10:47:03;4.43;;;0.63;;
1206;SDS011;593;53.184;8.216;2023-12-20T10:49:29;1.33;;;0.60;;
1206;SDS011;593;53.184;8.216;2023-12-20T10:51:55;2.45;;;0.60;;
1206;SDS011;593;53.184;8.216;2023-12-20T10:54:24;1.65;;;0.50;;
1206;SDS011;593;53.184;8.216;2023-12-20T10:56:50;3.30;;;0.70;;
1206;SDS011;593;53.184;8.216;2023-12-20T10:59:19;5.10;;;0.77;;
1206;SDS011;593;53.184;8.216;2023-12-20T11:01:48;3.00;;;0.95;;
1206;SDS011;593;53.184;8.216;2023-12-20T11:04:19;2.90;;;0.70;;
1206;SDS011;593;53.184;8.216;2023-12-20T11:06:54;2.00;;;0.85;;
1206;SDS011;593;53.184;8.216;2023-12-20T11:09:33;2.50;;;0.70;;
1206;SDS011;593;53.184;8.216;2023-12-20T11:12:23;3.67;;;0.60;;
1206;SDS011;593;53.184;8.216;2023-12-20T11:15:02;3.03;;;1.42;;
1206;SDS011;593;53.184;8.216;2023-12-20T11:17:31;3.38;;;0.60;;
1206;SDS011;593;53.184;8.216;2023-12-20T11:20:03;5.07;;;0.80;;
1206;SDS011;593;53.184;8.216;2023-12-20T11:22:31;1.80;;;0.88;;
1206;SDS011;593;53.184;8.216;2023-12-20T11:25:07;1.95;;;0.70;;
1206;SDS011;593;53.184;8.216;2023-12-20T11:27:36;5.13;;;1.35;;
1206;SDS011;593;53.184;8.216;2023-12-20T11:30:07;2.65;;;0.60;;
1206;SDS011;593;53.184;8.216;2023-12-20T11:32:34;4.55;;;0.80;;
1206;SDS011;593;53.184;8.216;2023-12-20T11:35:22;5.35;;;1.00;;
1206;SDS011;593;53.184;8.216;2023-12-20T11:37:49;4.03;;;0.98;;
1206;SDS011;593;53.184;8.216;2023-12-20T11:40:18;4.40;;;0.80;;
1206;SDS011;593;53.184;8.216;2023-12-20T11:42:45;3.78;;;0.63;;
1206;SDS011;593;53.184;8.216;2023-12-20T11:45:14;4.22;;;0.90;;
1206;SDS011;593;53.184;8.216;2023-12-20T11:47:45;2.70;;;0.97;;
1206;SDS011;593;53.184;8.216;2023-12-20T11:50:21;3.45;;;0.60;;
1206;SDS011;593;53.184;8.216;2023-12-20T11:52:51;3.50;;;0.50;;
1206;SDS011;593;53.184;8.216;2023-12-20T11:55:19;6.47;;;1.02;;
1206;SDS011;593;53.184;8.216;2023-12-20T11:57:47;4.38;;;1.00;;
1206;SDS011;593;53.184;8.216;2023-12-20T12:00:14;7.05;;;0.70;;
1206;SDS011;593;53.184;8.216;2023-12-20T12:02:42;3.40;;;0.80;;
1206;SDS011;593;53.184;8.216;2023-12-20T12:05:09;6.18;;;0.80;;
1206;SDS011;593;53.184;8.216;2023-12-20T12:07:35;6.15;;;1.52;;
1206;SDS011;593;53.184;8.216;2023-12-20T12:10:01;5.53;;;1.10;;
1206;SDS011;593;53.184;8.216;2023-12-20T12:12:28;6.35;;;1.08;;
1206;SDS011;593;53.184;8.216;2023-12-20T12:14:55;4.22;;;0.90;;
1206;SDS011;593;53.184;8.216;2023-12-20T12:17:22;5.07;;;1.33;;
1206;SDS011;593;53.184;8.216;2023-12-20T12:19:48;4.33;;;0.93;;
1206;SDS011;593;53.184;8.216;2023-12-20T12:22:14;6.53;;;0.90;;
1206;SDS011;593;53.184;8.216;2023-12-20T12:24:41;2.63;;;0.90;;
1206;SDS011;593;53.184;8.216;2023-12-20T12:27:11;9.45;;;1.20;;
1206;SDS011;593;53.184;8.216;2023-12-20T12:29:37;4.60;;;1.27;;
1206;SDS011;593;53.184;8.216;2023-12-20T12:32:07;5.50;;;1.10;;
1206;SDS011;593;53.184;8.216;2023-12-20T12:34:33;2.30;;;1.00;;
1206;SDS011;593;53.184;8.216;2023-12-20T12:36:59;6.65;;;1.23;;
1206;SDS011;593;53.184;8.216;2023-12-20T12:39:25;7.00;;;1.10;;
1206;SDS011;593;53.184;8.216;2023-12-20T12:41:51;4.03;;;1.10;;
1206;SDS011;593;53.184;8.216;2023-12-20T12:44:17;3.27;;;1.47;;
1206;SDS011;593;53.184;8.216;2023-12-20T12:46:43;9.40;;;1.07;;
1206;SDS011;593;53.184;8.216;2023-12-20T12:49:09;2.15;;;0.70;;
1206;SDS011;593;53.184;8.216;2023-12-20T12:51:34;3.97;;;1.73;;
1206;SDS011;593;53.184;8.216;2023-12-20T12:53:59;2.13;;;0.80;;
1206;SDS011;593;53.184;8.216;2023-12-20T12:56:25;2.50;;;1.00;;
1206;SDS011;593;53.184;8.216;2023-12-20T12:58:50;3.10;;;1.43;;
1206;SDS011;593;53.184;8.216;2023-12-20T13:01:16;3.50;;;1.07;;
1206;SDS011;593;53.184;8.216;2023-12-20T13:03:41;9.80;;;0.97;;
1206;SDS011;593;53.184;8.216;2023-12-20T13:06:06;3.87;;;1.37;;
1206;SDS011;593;53.184;8.216;2023-12-20T13:08:33;4.60;;;1.33;;
1206;SDS011;593;53.184;8.216;2023-12-20T13:10:59;7.30;;;1.13;;
1206;SDS011;593;53.184;8.216;2023-12-20T13:13:26;1.92;;;1.00;;
1206;SDS011;593;53.184;8.216;2023-12-20T13:15:51;8.27;;;0.95;;
1206;SDS011;593;53.184;8.216;2023-12-20T13:18:19;4.45;;;1.00;;
1206;SDS011;593;53.184;8.216;2023-12-20T13:20:45;6.07;;;1.60;;
1206;SDS011;593;53.184;8.216;2023-12-20T13:23:11;5.90;;;0.90;;
1206;SDS011;593;53.184;8.216;2023-12-20T13:25:36;6.10;;;1.17;;
1206;SDS011;593;53.184;8.216;2023-12-20T13:28:01;6.67;;;1.00;;
1206;SDS011;593;53.184;8.216;2023-12-20T13:30:28;4.15;;;1.00;;
1206;SDS011;593;53.184;8.216;2023-12-20T13:32:53;10.60;;;1.80;;
1206;SDS011;593;53.184;8.216;2023-12-20T13:35:19;8.03;;;2.33;;
1206;SDS011;593;53.184;8.216;2023-12-20T13:37:45;2.58;;;1.00;;
1206;SDS011;593;53.184;8.216;2023-12-20T13:40:11;7.60;;;1.03;;
1206;SDS011;593;53.184;8.216;2023-12-20T13:42:36;12.97;;;1.60;;
1206;SDS011;593;53.184;8.216;2023-12-20T13:45:01;5.80;;;1.00;;
1206;SDS011;593;53.184;8.216;2023-12-20T13:47:27;7.00;;;0.95;;
1206;SDS011;593;53.184;8.216;2023-12-20T13:49:54;7.88;;;1.92;;
1206;SDS011;593;53.184;8.216;2023-12-20T13:52:21;5.83;;;1.37;;
1206;SDS011;593;53.184;8.216;2023-12-20T13:54:46;5.40;;;1.17;;
1206;SDS011;593;53.184;8.216;2023-12-20T13:57:12;4.20;;;1.40;;
1206;SDS011;593;53.184;8.216;2023-12-20T13:59:37;7.67;;;1.10;;
1206;SDS011;593;53.184;8.216;2023-12-20T14:02:02;5.57;;;1.40;;
1206;SDS011;593;53.184;8.216;2023-12-20T14:04:28;7.10;;;1.37;;
1206;SDS011;593;53.184;8.216;2023-12-20T14:06:53;4.73;;;1.13;;
1206;SDS011;593;53.184;8.216;2023-12-20T14:09:19;2.70;;;0.70;;
1206;SDS011;593;53.184;8.216;2023-12-20T14:11:46;4.15;;;1.05;;
1206;SDS011;593;53.184;8.216;2023-12-20T14:14:13;6.35;;;1.23;;
1206;SDS011;593;53.184;8.216;2023-12-20T14:16:38;12.90;;;1.83;;
1206;SDS011;593;53.184;8.216;2023-12-20T14:19:03;14.67;;;1.13;;
1206;SDS011;593;53.184;8.216;2023-12-20T14:21:30;2.65;;;1.05;;
1206;SDS011;593;53.184;8.216;2023-12-20T14:23:55;3.80;;;1.13;;
1206;SDS011;593;53.184;8.216;2023-12-20T14:26:21;11.33;;;1.27;;
1206;SDS011;593;53.184;8.216;2023-12-20T14:28:46;5.33;;;1.23;;
1206;SDS011;593;53.184;8.216;2023-12-20T14:31:11;10.50;;;1.37;;
1206;SDS011;593;53.184;8.216;2023-12-20T14:33:37;2.63;;;0.77;;
1206;SDS011;593;53.184;8.216;2023-12-20T14:36:04;9.10;;;1.02;;
1206;SDS011;593;53.184;8.216;2023-12-20T14:38:30;6.03;;;0.88;;
1206;SDS011;593;53.184;8.216;2023-12-20T14:40:56;7.75;;;1.98;;
1206;SDS011;593;53.184;8.216;2023-12-20T14:43:22;4.40;;;1.13;;
1206;SDS011;593;53.184;8.216;2023-12-20T14:45:48;3.33;;;1.13;;
1206;SDS011;593;53.184;8.216;2023-12-20T14:48:13;5.33;;;0.87;;
1206;SDS011;593;53.184;8.216;2023-12-20T14:50:38;7.33;;;1.87;;
1206;SDS011;593;53.184;8.216;2023-12-20T14:53:05;2.88;;;1.25;;
1206;SDS011;593;53.184;8.216;2023-12-20T14:55:31;6.00;;;3.25;;
1206;SDS011;593;53.184;8.216;2023-12-20T14:57:57;5.50;;;1.40;;
1206;SDS011;593;53.184;8.216;2023-12-20T15:00:22;10.20;;;1.30;;
1206;SDS011;593;53.184;8.216;2023-12-20T15:02:48;5.80;;;1.00;;
1206;SDS011;593;53.184;8.216;2023-12-20T15:05:14;3.60;;;1.02;;
1206;SDS011;593;53.184;8.216;2023-12-20T15:07:43;5.10;;;1.20;;
1206;SDS011;593;53.184;8.216;2023-12-20T15:10:08;4.10;;;0.90;;
1206;SDS011;593;53.184;8.216;2023-12-20T15:12:34;6.33;;;1.50;;
1206;SDS011;593;53.184;8.216;2023-12-20T15:14:59;2.93;;;1.83;;
1206;SDS011;593;53.184;8.216;2023-12-20T15:17:25;9.97;;;1.03;;
1206;SDS011;593;53.184;8.216;2023-12-20T15:19:51;3.03;;;1.03;;
1206;SDS011;593;53.184;8.216;2023-12-20T15:22:16;6.33;;;1.00;;
1206;SDS011;593;53.184;8.216;2023-12-20T15:24:42;3.80;;;1.10;;